createdAt,value
2023-08-04T00:02:02.832Z,35.22
2023-08-04T00:04:30.108Z,35.73
2023-08-04T00:06:57.338Z,35.23
2023-08-04T00:09:24.684Z,35.43
2023-08-04T00:11:51.906Z,35.38
2023-08-04T00:14:19.118Z,35.22
2023-08-04T00:16:46.353Z,35.35
2023-08-04T00:19:13.592Z,35.33
2023-08-04T00:21:40.798Z,35.29
2023-08-04T00:24:08.008Z,34.90
2023-08-04T00:26:35.354Z,35.03
2023-08-04T00:29:02.562Z,34.77
2023-08-04T00:31:29.873Z,35.21
2023-08-04T00:33:57.112Z,35.08
2023-08-04T00:36:24.401Z,34.84
2023-08-04T00:38:51.594Z,35.09
2023-08-04T00:41:18.873Z,35.33
2023-08-04T00:43:46.113Z,35.07
2023-08-04T00:46:13.399Z,34.94
2023-08-04T00:48:40.633Z,34.93
2023-08-04T00:51:07.872Z,34.85
2023-08-04T00:53:35.247Z,35.16
2023-08-04T00:56:02.674Z,35.31
2023-08-04T00:58:30.653Z,35.00
2023-08-04T01:00:57.907Z,35.13
2023-08-04T01:03:25.658Z,35.15
2023-08-04T01:06:15.413Z,35.24
2023-08-04T01:08:48.545Z,34.97
2023-08-04T01:11:19.289Z,35.37
2023-08-04T01:13:47.901Z,35.18
2023-08-04T01:16:15.308Z,35.28
2023-08-04T01:18:43.924Z,35.37
2023-08-04T01:21:11.261Z,35.02
2023-08-04T01:23:38.503Z,34.98
2023-08-04T01:26:08.183Z,35.37
2023-08-04T01:28:35.620Z,35.36
2023-08-04T01:31:03.134Z,35.34
2023-08-04T01:33:31.083Z,35.35
2023-08-04T01:35:58.385Z,35.34
2023-08-04T01:38:25.624Z,35.28
2023-08-04T01:40:52.950Z,35.37
2023-08-04T01:43:21.358Z,35.05
2023-08-04T01:45:48.781Z,35.16
2023-08-04T01:48:16.039Z,34.96
2023-08-04T01:50:44.125Z,35.21
2023-08-04T01:53:11.372Z,35.22
2023-08-04T01:55:40.016Z,35.03
2023-08-04T01:58:07.251Z,34.96
2023-08-04T02:00:34.464Z,35.02
2023-08-04T02:03:01.822Z,35.12
2023-08-04T02:05:29.086Z,35.14
2023-08-04T02:07:56.364Z,34.90
2023-08-04T02:10:29.192Z,35.09
2023-08-04T02:12:56.531Z,34.76
2023-08-04T02:15:23.894Z,34.96
2023-08-04T02:17:51.253Z,35.00
2023-08-04T02:20:18.608Z,35.18
2023-08-04T02:22:46.469Z,35.05
2023-08-04T02:25:13.807Z,35.37
2023-08-04T02:27:40.996Z,35.13
2023-08-04T02:30:08.440Z,35.19
2023-08-04T02:32:35.701Z,35.31
2023-08-04T02:35:03.022Z,34.90
2023-08-04T02:37:30.260Z,34.99
2023-08-04T02:39:57.493Z,34.86
2023-08-04T02:42:25.773Z,34.83
2023-08-04T02:44:54.116Z,34.66
2023-08-04T02:47:21.445Z,34.81
2023-08-04T02:49:48.655Z,34.69
2023-08-04T02:52:17.420Z,34.78
2023-08-04T02:54:44.749Z,34.59
2023-08-04T02:57:12.248Z,34.93
2023-08-04T02:59:39.546Z,35.14
2023-08-04T03:02:07.959Z,34.97
2023-08-04T03:04:35.240Z,34.55
2023-08-04T03:07:02.514Z,34.90
2023-08-04T03:09:29.747Z,35.06
2023-08-04T03:11:57.615Z,34.83
2023-08-04T03:14:25.781Z,34.75
2023-08-04T03:16:53.203Z,34.94
2023-08-04T03:19:20.457Z,34.88
2023-08-04T03:21:47.829Z,34.41
2023-08-04T03:24:15.211Z,34.72
2023-08-04T03:26:42.476Z,34.71
2023-08-04T03:29:09.734Z,34.75
2023-08-04T03:31:37.024Z,34.96
2023-08-04T03:34:04.771Z,35.46
2023-08-04T03:36:32.377Z,35.42
2023-08-04T03:38:59.696Z,34.66
2023-08-04T03:41:26.921Z,34.60
2023-08-04T03:43:54.135Z,35.00
2023-08-04T03:46:21.368Z,35.18
2023-08-04T03:48:48.596Z,35.15
2023-08-04T03:51:18.983Z,35.52
2023-08-04T03:53:46.295Z,35.15
2023-08-04T03:56:13.494Z,34.95
2023-08-04T03:58:40.791Z,34.76
2023-08-04T04:01:08.116Z,34.83
2023-08-04T04:03:35.871Z,34.68
2023-08-04T04:06:03.290Z,34.90
2023-08-04T04:08:30.908Z,34.73
2023-08-04T04:10:58.264Z,34.61
2023-08-04T04:13:25.563Z,34.84
2023-08-04T04:15:52.783Z,34.91
2023-08-04T04:18:19.977Z,34.95
2023-08-04T04:20:47.360Z,35.14
2023-08-04T04:23:14.568Z,34.99
2023-08-04T04:25:41.860Z,35.17
2023-08-04T04:28:09.093Z,35.14
2023-08-04T04:30:36.426Z,35.03
2023-08-04T04:33:03.664Z,34.96
2023-08-04T04:35:30.965Z,34.87
2023-08-04T04:37:58.231Z,35.01
2023-08-04T04:40:25.597Z,35.04
2023-08-04T04:42:53.013Z,34.92
2023-08-04T04:45:20.281Z,34.87
2023-08-04T04:47:47.581Z,34.64
2023-08-04T04:50:14.880Z,35.15
2023-08-04T04:52:42.134Z,35.07
2023-08-04T04:55:09.598Z,34.68
2023-08-04T04:57:41.090Z,34.86
2023-08-04T05:00:09.240Z,34.61
2023-08-04T05:02:38.194Z,34.43
2023-08-04T05:05:05.713Z,34.81
2023-08-04T05:07:32.982Z,34.94
2023-08-04T05:10:00.228Z,34.90
2023-08-04T05:12:27.471Z,34.80
2023-08-04T05:14:54.754Z,34.83
2023-08-04T05:17:21.981Z,35.03
2023-08-04T05:19:49.234Z,34.83
2023-08-04T05:22:16.498Z,34.60
2023-08-04T05:24:44.091Z,34.74
2023-08-04T05:27:12.207Z,34.75
2023-08-04T05:29:41.795Z,34.93
2023-08-04T05:32:09.231Z,34.93
2023-08-04T05:34:36.487Z,35.04
2023-08-04T05:37:03.735Z,35.06
2023-08-04T05:39:31.012Z,34.84
2023-08-04T05:41:58.191Z,35.14
2023-08-04T05:44:25.460Z,35.21
2023-08-04T05:46:52.647Z,34.96
2023-08-04T05:49:19.994Z,35.11
2023-08-04T05:51:50.365Z,35.46
2023-08-04T05:54:18.249Z,34.97
2023-08-04T05:56:49.371Z,35.57
2023-08-04T05:59:16.941Z,35.42
2023-08-04T06:01:44.829Z,35.05
2023-08-04T06:04:12.057Z,35.22
2023-08-04T06:06:39.437Z,35.07
2023-08-04T06:09:09.626Z,35.34
2023-08-04T06:11:36.849Z,35.69
2023-08-04T06:14:52.215Z,35.21
2023-08-04T07:02:46.053Z,35.59
2023-08-04T07:05:13.437Z,35.33
2023-08-04T07:07:43.696Z,35.34
2023-08-04T07:10:17.678Z,35.96
2023-08-04T07:12:49.299Z,35.61
2023-08-04T07:15:19.402Z,35.62
2023-08-04T07:17:49.013Z,35.21
2023-08-04T07:20:20.008Z,34.98
2023-08-04T07:22:52.273Z,35.25
2023-08-04T07:25:22.130Z,35.35
2023-08-04T07:27:53.746Z,35.34
2023-08-04T07:30:23.876Z,35.17
2023-08-04T07:32:53.563Z,35.83
2023-08-04T07:35:22.531Z,35.59
2023-08-04T07:37:51.314Z,35.60
2023-08-04T07:40:20.093Z,35.88
2023-08-04T07:42:48.694Z,35.75
2023-08-04T07:45:19.096Z,35.77
2023-08-04T07:47:47.415Z,35.55
2023-08-04T07:50:15.362Z,35.54
2023-08-04T07:52:46.907Z,35.88
2023-08-04T07:55:15.746Z,35.92
2023-08-04T07:57:44.968Z,35.79
2023-08-04T08:00:12.880Z,35.80
2023-08-04T08:02:40.114Z,35.53
2023-08-04T08:05:09.226Z,35.48
2023-08-04T08:07:45.737Z,35.55
2023-08-04T08:10:15.146Z,35.57
2023-08-04T08:12:42.680Z,35.87
2023-08-04T08:15:10.097Z,35.61
2023-08-04T08:17:42.250Z,35.27
2023-08-04T08:20:09.717Z,35.59
2023-08-04T08:22:36.954Z,35.68
2023-08-04T08:25:04.276Z,35.85
2023-08-04T08:27:31.519Z,35.92
2023-08-04T08:29:58.789Z,36.13
2023-08-04T08:32:26.025Z,35.75
2023-08-04T08:34:53.220Z,35.79
2023-08-04T08:37:20.564Z,35.67
2023-08-04T08:39:47.782Z,35.61
2023-08-04T08:42:16.080Z,35.43
2023-08-04T08:44:43.362Z,36.13
2023-08-04T08:47:10.584Z,35.98
2023-08-04T08:49:45.383Z,36.09
2023-08-04T08:52:12.694Z,35.88
2023-08-04T08:54:39.935Z,35.82
2023-08-04T08:57:07.431Z,36.10
2023-08-04T08:59:34.771Z,36.15
2023-08-04T09:02:02.770Z,36.11
2023-08-04T09:04:34.134Z,36.29
2023-08-04T09:07:01.391Z,36.07
2023-08-04T09:09:29.108Z,35.91
2023-08-04T09:11:58.100Z,35.63
2023-08-04T09:14:25.571Z,35.69
2023-08-04T09:16:52.756Z,36.12
2023-08-04T09:19:19.967Z,36.15
2023-08-04T09:21:47.357Z,36.84
2023-08-04T09:24:16.742Z,36.06
2023-08-04T09:26:47.759Z,35.58
2023-08-04T09:29:15.507Z,35.60
2023-08-04T09:31:43.787Z,36.08
2023-08-04T09:34:12.043Z,35.58
2023-08-04T09:36:50.662Z,35.39
2023-08-04T09:42:23.555Z,35.54
2023-08-04T09:47:44.462Z,36.32
2023-08-04T09:50:18.885Z,36.08
2023-08-04T09:52:50.257Z,36.32
2023-08-04T09:56:00.750Z,36.00
2023-08-04T09:58:28.464Z,36.30
2023-08-04T10:00:59.745Z,36.16
2023-08-04T10:03:27.512Z,36.00
2023-08-04T10:05:56.648Z,35.71
2023-08-04T10:08:30.056Z,35.58
2023-08-04T10:11:12.591Z,36.21
2023-08-04T10:13:57.373Z,35.94
2023-08-04T10:16:34.968Z,35.88
2023-08-04T10:19:25.085Z,35.80
2023-08-04T10:21:56.100Z,35.28
2023-08-04T10:24:23.514Z,35.58
2023-08-04T10:27:04.522Z,35.48
2023-08-04T10:29:38.098Z,35.34
2023-08-04T10:32:16.092Z,35.26
2023-08-04T10:35:03.952Z,35.22
2023-08-04T10:37:46.077Z,35.53
2023-08-04T10:40:15.252Z,35.52
2023-08-04T10:43:17.906Z,35.52
2023-08-04T10:46:01.454Z,35.60
2023-08-04T10:51:03.345Z,35.75
2023-08-04T10:53:37.059Z,35.71
2023-08-04T10:56:09.946Z,35.77
2023-08-04T10:58:45.561Z,36.06
2023-08-04T11:01:52.308Z,35.87
2023-08-04T11:05:09.963Z,35.87
2023-08-04T11:07:46.217Z,35.87
2023-08-04T11:10:18.176Z,35.90
2023-08-04T11:12:51.577Z,36.22
2023-08-04T11:15:24.141Z,35.99
2023-08-04T11:17:58.704Z,36.03
2023-08-04T11:20:41.597Z,35.56
2023-08-04T11:23:37.748Z,35.38
2023-08-04T11:26:13.648Z,35.50
2023-08-04T11:28:54.803Z,35.64
2023-08-04T11:31:28.232Z,35.62
2023-08-04T11:34:08.335Z,35.87
2023-08-04T11:36:37.952Z,35.86
2023-08-04T11:39:10.579Z,35.89
2023-08-04T11:41:48.298Z,36.25
2023-08-04T11:44:18.774Z,36.44
2023-08-04T11:46:48.369Z,36.49
2023-08-04T11:49:18.234Z,36.47
2023-08-04T11:51:46.485Z,36.14
2023-08-04T11:54:23.602Z,36.39
2023-08-04T11:56:56.441Z,36.04
2023-08-04T11:59:24.632Z,36.45
2023-08-04T12:02:07.099Z,36.07
2023-08-04T12:04:35.438Z,35.73
2023-08-04T12:07:06.962Z,36.03
2023-08-04T12:09:34.732Z,36.21
2023-08-04T12:12:33.810Z,36.33
2023-08-04T12:15:21.753Z,36.10
2023-08-04T12:17:56.219Z,36.49
2023-08-04T12:20:48.652Z,36.55
2023-08-04T12:23:15.126Z,36.48
2023-08-04T12:25:42.600Z,36.46
2023-08-04T12:28:12.687Z,36.52
2023-08-04T12:30:42.514Z,36.33
2023-08-04T12:33:16.701Z,36.28
2023-08-04T12:35:44.078Z,36.04
2023-08-04T12:38:14.128Z,36.79
2023-08-04T12:40:41.766Z,36.03
2023-08-04T12:43:11.648Z,36.27
2023-08-04T12:45:42.141Z,36.61
2023-08-04T12:48:10.250Z,36.33
2023-08-04T12:50:53.242Z,36.22
2023-08-04T12:53:22.475Z,36.36
2023-08-04T12:55:49.963Z,36.45
2023-08-04T12:58:17.330Z,36.32
2023-08-04T13:00:44.655Z,36.18
2023-08-04T13:03:12.072Z,36.08
2023-08-04T13:05:45.984Z,36.08
2023-08-04T13:08:20.034Z,36.07
2023-08-04T13:10:48.756Z,36.37
2023-08-04T13:13:30.942Z,36.21
2023-08-04T13:16:05.245Z,36.12
2023-08-04T13:18:53.094Z,35.96
2023-08-04T13:21:28.674Z,36.06
2023-08-04T13:23:56.115Z,36.08
2023-08-04T13:26:24.642Z,35.97
2023-08-04T13:28:52.132Z,36.22
2023-08-04T13:31:19.537Z,35.94
2023-08-04T13:33:46.842Z,36.00
2023-08-04T13:36:14.248Z,36.03
2023-08-04T13:38:41.760Z,36.49
2023-08-04T13:41:09.794Z,36.29
2023-08-04T13:43:41.163Z,36.15
2023-08-04T13:46:13.938Z,36.45
2023-08-04T13:57:49.048Z,36.82
2023-08-04T14:00:16.493Z,36.83
2023-08-04T14:02:49.128Z,37.27
2023-08-04T14:05:39.045Z,36.95
2023-08-04T14:08:08.390Z,36.46
2023-08-04T14:10:42.885Z,36.78
2023-08-04T14:13:45.932Z,37.33
2023-08-04T14:16:30.724Z,37.58
2023-08-04T14:26:52.648Z,37.61
2023-08-04T14:29:20.434Z,37.58
2023-08-04T14:32:01.046Z,37.77
2023-08-04T14:34:41.927Z,38.19
2023-08-04T14:40:07.881Z,37.70
2023-08-04T14:42:38.284Z,37.75
2023-08-04T14:45:11.467Z,38.11
2023-08-04T14:47:39.005Z,38.01
2023-08-04T14:50:11.962Z,37.77
2023-08-04T14:52:39.508Z,37.67
2023-08-04T14:55:07.118Z,37.82
2023-08-04T14:57:34.530Z,37.73
2023-08-04T15:00:02.201Z,37.72
2023-08-04T15:02:29.744Z,37.64
2023-08-04T15:05:00.340Z,37.97
2023-08-04T15:07:29.045Z,38.05
2023-08-04T15:10:09.327Z,38.20
2023-08-04T15:12:36.740Z,37.69
2023-08-04T15:15:04.727Z,38.14
2023-08-04T15:17:32.327Z,37.82
2023-08-04T15:19:59.797Z,38.09
2023-08-04T15:22:27.136Z,37.89
2023-08-04T15:24:54.568Z,37.99
2023-08-04T15:27:21.911Z,37.93
2023-08-04T15:29:50.391Z,37.98
2023-08-04T15:32:20.330Z,38.06
2023-08-04T15:34:52.801Z,38.16
2023-08-04T15:37:27.589Z,37.91
2023-08-04T15:40:00.640Z,37.77
2023-08-04T15:42:29.236Z,37.46
2023-08-04T15:44:57.790Z,37.94
2023-08-04T15:47:28.163Z,37.70
2023-08-04T15:49:55.476Z,37.42
2023-08-04T15:52:26.383Z,37.43
2023-08-04T15:55:06.722Z,37.64
2023-08-04T15:57:40.823Z,37.84
2023-08-04T16:00:10.324Z,37.25
2023-08-04T16:02:37.585Z,37.20
2023-08-04T16:05:05.118Z,37.68
2023-08-04T16:07:32.784Z,37.84
2023-08-04T16:10:00.448Z,37.32
2023-08-04T16:12:32.240Z,37.16
2023-08-04T16:14:59.514Z,37.55
2023-08-04T16:17:26.766Z,37.23
2023-08-04T16:19:54.133Z,37.41
2023-08-04T16:22:21.408Z,37.52
2023-08-04T16:24:55.197Z,37.25
2023-08-04T16:27:22.483Z,37.23
2023-08-04T16:29:50.817Z,37.49
2023-08-04T16:32:18.227Z,37.61
2023-08-04T16:34:46.644Z,37.16
2023-08-04T16:37:13.913Z,37.37
2023-08-04T16:39:41.260Z,37.47
2023-08-04T16:42:08.507Z,37.37
2023-08-04T16:44:35.980Z,37.11
2023-08-04T16:47:03.848Z,37.22
2023-08-04T16:49:31.103Z,37.19
2023-08-04T16:51:58.459Z,37.36
2023-08-04T16:54:25.716Z,36.96
2023-08-04T16:56:53.033Z,37.15
2023-08-04T16:59:20.302Z,36.88
2023-08-04T17:01:47.616Z,36.95
2023-08-04T17:04:14.912Z,37.14
2023-08-04T17:06:42.276Z,37.23
2023-08-04T17:09:09.480Z,37.15
2023-08-04T17:11:41.002Z,36.85
2023-08-04T17:14:16.884Z,36.86
2023-08-04T17:16:44.331Z,37.06
2023-08-04T17:19:17.981Z,36.92
2023-08-04T17:21:45.461Z,37.28
2023-08-04T17:24:13.613Z,36.88
2023-08-04T17:26:43.529Z,37.21
2023-08-04T17:29:13.240Z,36.97
2023-08-04T17:31:45.325Z,36.95
2023-08-04T17:34:22.746Z,37.07
2023-08-04T17:36:50.366Z,37.03
2023-08-04T17:39:22.874Z,36.95
2023-08-04T17:41:56.396Z,37.24
2023-08-04T17:44:30.331Z,37.18
2023-08-04T17:46:58.519Z,36.99
2023-08-04T17:49:31.708Z,37.07
2023-08-04T17:52:02.053Z,37.07
2023-08-04T17:54:32.232Z,37.14
2023-08-04T17:57:02.277Z,36.77
2023-08-04T17:59:38.205Z,36.98
2023-08-04T18:02:05.886Z,37.10
2023-08-04T18:04:36.423Z,37.17
2023-08-04T18:07:03.853Z,36.86
2023-08-04T18:09:33.532Z,36.72
2023-08-04T18:12:01.178Z,37.03
2023-08-04T18:14:28.820Z,36.87
2023-08-04T18:17:02.635Z,36.92
2023-08-04T18:19:35.390Z,36.59
2023-08-04T18:22:07.258Z,36.79
2023-08-04T18:24:39.740Z,36.66
2023-08-04T18:27:12.788Z,36.84
2023-08-04T18:29:50.875Z,36.68
2023-08-04T18:32:24.743Z,36.54
2023-08-04T18:34:52.544Z,36.71
2023-08-04T18:37:19.983Z,36.63
2023-08-04T18:39:47.290Z,36.47
2023-08-04T18:42:15.609Z,36.49
2023-08-04T18:44:45.666Z,36.85
2023-08-04T18:47:13.040Z,36.61
2023-08-04T18:49:40.542Z,36.52
2023-08-04T18:52:15.982Z,36.64
2023-08-04T18:54:47.692Z,36.53
2023-08-04T18:57:15.075Z,36.38
2023-08-04T18:59:42.394Z,36.45
2023-08-04T19:02:10.079Z,36.38
2023-08-04T19:04:37.553Z,36.52
2023-08-04T19:07:05.112Z,36.17
2023-08-04T19:09:32.386Z,36.49
2023-08-04T19:11:59.674Z,36.30
2023-08-04T19:14:26.927Z,36.34
2023-08-04T19:16:55.207Z,36.54
2023-08-04T19:19:25.783Z,36.15
2023-08-04T19:21:53.036Z,36.22
2023-08-04T19:24:20.334Z,36.25
2023-08-04T19:26:47.755Z,36.43
2023-08-04T19:29:15.276Z,36.37
2023-08-04T19:31:42.544Z,36.32
2023-08-04T19:34:09.895Z,36.47
2023-08-04T19:36:37.141Z,36.20
2023-08-04T19:39:04.502Z,35.91
2023-08-04T19:41:46.025Z,36.12
2023-08-04T19:44:19.853Z,36.14
2023-08-04T19:46:47.848Z,36.40
2023-08-04T19:49:15.415Z,36.39
2023-08-04T19:51:43.123Z,36.47
2023-08-04T19:54:19.442Z,36.32
2023-08-04T19:56:48.443Z,36.55
2023-08-04T19:59:25.365Z,36.75
2023-08-04T20:01:52.700Z,36.75
2023-08-04T20:04:25.652Z,36.52
2023-08-04T20:06:56.610Z,36.44
2023-08-04T20:09:28.195Z,36.49
2023-08-04T20:11:58.207Z,36.32
2023-08-04T20:14:48.769Z,36.48
2023-08-04T20:21:05.641Z,36.39
2023-08-04T20:23:46.245Z,36.49
2023-08-04T20:26:31.433Z,36.35
2023-08-04T20:29:06.336Z,36.54
2023-08-04T20:31:33.919Z,36.63
2023-08-04T20:34:06.619Z,36.68
2023-08-04T20:36:44.504Z,36.27
2023-08-04T20:39:17.417Z,36.39
2023-08-04T20:41:44.843Z,36.61
2023-08-04T20:44:13.571Z,36.69
2023-08-04T20:46:42.856Z,36.78
2023-08-04T20:49:10.612Z,36.64
2023-08-04T20:51:39.121Z,36.71
2023-08-04T20:54:06.821Z,36.54
2023-08-04T20:56:34.336Z,36.68
2023-08-04T20:59:03.898Z,36.60
2023-08-04T21:01:34.283Z,36.55
2023-08-04T21:04:01.590Z,36.52
2023-08-04T21:06:30.125Z,36.56
2023-08-04T21:08:57.369Z,36.59
2023-08-04T21:11:25.334Z,36.49
2023-08-04T21:13:53.418Z,36.40
2023-08-04T21:16:21.149Z,36.54
2023-08-04T21:18:48.916Z,36.70
2023-08-04T21:21:16.187Z,36.64
2023-08-04T21:23:46.343Z,36.51
2023-08-04T21:26:13.571Z,36.47
2023-08-04T21:28:40.862Z,36.25
2023-08-04T21:31:08.192Z,36.54
2023-08-04T21:33:35.900Z,36.65
2023-08-04T21:36:04.279Z,36.21
2023-08-04T21:38:31.967Z,36.32
2023-08-04T21:41:03.495Z,36.52
2023-08-04T21:43:30.821Z,36.57
2023-08-04T21:46:07.588Z,36.60
2023-08-04T21:48:35.060Z,36.37
2023-08-04T21:51:17.586Z,36.32
2023-08-04T21:53:44.913Z,36.56
2023-08-04T21:56:12.336Z,36.47
2023-08-04T21:58:42.001Z,36.57
2023-08-04T22:01:10.704Z,36.63
2023-08-04T22:03:38.582Z,36.50
2023-08-04T22:06:06.754Z,36.63
2023-08-04T22:08:36.396Z,36.53
2023-08-04T22:11:09.309Z,36.59
2023-08-04T22:13:37.904Z,36.59
2023-08-04T22:16:07.813Z,36.49
2023-08-04T22:18:38.138Z,36.49
2023-08-04T22:21:08.309Z,36.38
2023-08-04T22:23:37.366Z,36.40
2023-08-04T22:26:06.699Z,36.39
2023-08-04T22:28:36.216Z,36.32
2023-08-04T22:31:03.831Z,36.35
2023-08-04T22:33:31.397Z,36.35
2023-08-04T22:35:59.382Z,36.59
2023-08-04T22:38:27.313Z,36.16
2023-08-04T22:40:58.814Z,36.18
2023-08-04T22:43:26.550Z,36.19
2023-08-04T22:45:57.003Z,36.15
2023-08-04T22:48:25.303Z,36.30
2023-08-04T22:50:54.418Z,36.37
2023-08-04T22:53:26.610Z,36.14
2023-08-04T22:55:59.040Z,36.20
2023-08-04T22:58:29.039Z,36.33
2023-08-04T23:00:57.635Z,36.44
2023-08-04T23:03:25.298Z,36.18
2023-08-04T23:05:52.987Z,36.15
2023-08-04T23:08:22.276Z,35.95
2023-08-04T23:10:58.941Z,36.07
2023-08-04T23:13:28.865Z,36.07
2023-08-04T23:16:00.166Z,36.41
2023-08-04T23:18:27.716Z,36.29
2023-08-04T23:20:55.154Z,36.29
2023-08-04T23:23:24.422Z,36.09
2023-08-04T23:25:52.607Z,36.10
2023-08-04T23:28:20.199Z,36.05
2023-08-04T23:30:48.346Z,36.10
2023-08-04T23:33:16.864Z,36.15
2023-08-04T23:35:50.270Z,36.24
2023-08-04T23:38:17.873Z,36.24
2023-08-04T23:40:45.372Z,36.26
2023-08-04T23:43:12.686Z,36.28
2023-08-04T23:45:39.939Z,36.12
2023-08-04T23:48:07.219Z,36.08
2023-08-04T23:50:36.477Z,36.00
2023-08-04T23:53:03.822Z,36.01
2023-08-04T23:55:31.111Z,36.02
2023-08-04T23:57:58.428Z,36.35
